sensor_id;sensor_type;location;lat;lon;timestamp;P1;durP1;ratioP1;P2;durP2;ratioP2
15905;SDS011;8051;50.820;4.884;2023-11-21T00:00:42;161.27;;;74.63;;
15905;SDS011;8051;50.820;4.884;2023-11-21T00:03:11;178.47;;;74.90;;
15905;SDS011;8051;50.820;4.884;2023-11-21T00:05:40;177.60;;;73.47;;
15905;SDS011;8051;50.820;4.884;2023-11-21T00:08:07;168.27;;;70.60;;
15905;SDS011;8051;50.820;4.884;2023-11-21T00:10:35;195.27;;;73.93;;
15905;SDS011;8051;50.820;4.884;2023-11-21T00:13:03;173.67;;;72.70;;
15905;SDS011;8051;50.820;4.884;2023-11-21T00:15:33;173.17;;;75.03;;
15905;SDS011;8051;50.820;4.884;2023-11-21T00:18:00;161.20;;;68.43;;
15905;SDS011;8051;50.820;4.884;2023-11-21T00:20:27;168.70;;;73.70;;
15905;SDS011;8051;50.820;4.884;2023-11-21T00:22:55;168.93;;;71.93;;
15905;SDS011;8051;50.820;4.884;2023-11-21T00:25:22;168.17;;;69.70;;
15905;SDS011;8051;50.820;4.884;2023-11-21T00:27:50;187.57;;;72.43;;
15905;SDS011;8051;50.820;4.884;2023-11-21T00:30:17;177.90;;;72.07;;
15905;SDS011;8051;50.820;4.884;2023-11-21T00:32:48;172.13;;;71.57;;
15905;SDS011;8051;50.820;4.884;2023-11-21T00:35:16;154.83;;;68.23;;
15905;SDS011;8051;50.820;4.884;2023-11-21T00:37:43;158.87;;;66.43;;
15905;SDS011;8051;50.820;4.884;2023-11-21T00:40:12;145.37;;;66.57;;
15905;SDS011;8051;50.820;4.884;2023-11-21T00:42:40;184.80;;;69.67;;
15905;SDS011;8051;50.820;4.884;2023-11-21T00:45:09;157.37;;;67.43;;
15905;SDS011;8051;50.820;4.884;2023-11-21T00:47:36;164.17;;;65.53;;
15905;SDS011;8051;50.820;4.884;2023-11-21T00:50:06;160.87;;;66.43;;
15905;SDS011;8051;50.820;4.884;2023-11-21T00:52:34;169.90;;;65.63;;
15905;SDS011;8051;50.820;4.884;2023-11-21T00:55:01;158.23;;;64.97;;
15905;SDS011;8051;50.820;4.884;2023-11-21T00:57:29;159.33;;;63.03;;
15905;SDS011;8051;50.820;4.884;2023-11-21T00:59:56;157.57;;;61.90;;
15905;SDS011;8051;50.820;4.884;2023-11-21T01:02:24;157.33;;;64.17;;
15905;SDS011;8051;50.820;4.884;2023-11-21T01:04:51;144.97;;;62.77;;
15905;SDS011;8051;50.820;4.884;2023-11-21T01:07:20;149.97;;;59.43;;
15905;SDS011;8051;50.820;4.884;2023-11-21T01:09:48;149.63;;;62.23;;
15905;SDS011;8051;50.820;4.884;2023-11-21T01:12:15;164.30;;;61.37;;
15905;SDS011;8051;50.820;4.884;2023-11-21T01:14:44;122.67;;;57.27;;
15905;SDS011;8051;50.820;4.884;2023-11-21T01:17:11;141.70;;;59.23;;
15905;SDS011;8051;50.820;4.884;2023-11-21T01:19:39;154.03;;;60.10;;
15905;SDS011;8051;50.820;4.884;2023-11-21T01:22:06;139.70;;;60.20;;
15905;SDS011;8051;50.820;4.884;2023-11-21T01:24:36;135.87;;;58.77;;
15905;SDS011;8051;50.820;4.884;2023-11-21T01:27:03;147.50;;;57.70;;
15905;SDS011;8051;50.820;4.884;2023-11-21T01:29:31;135.10;;;56.03;;
15905;SDS011;8051;50.820;4.884;2023-11-21T01:31:59;141.00;;;55.73;;
15905;SDS011;8051;50.820;4.884;2023-11-21T01:34:27;140.63;;;54.97;;
15905;SDS011;8051;50.820;4.884;2023-11-21T01:36:54;146.30;;;57.40;;
15905;SDS011;8051;50.820;4.884;2023-11-21T01:39:22;134.97;;;56.40;;
15905;SDS011;8051;50.820;4.884;2023-11-21T01:41:51;152.13;;;55.40;;
15905;SDS011;8051;50.820;4.884;2023-11-21T01:44:19;143.33;;;55.83;;
15905;SDS011;8051;50.820;4.884;2023-11-21T01:46:46;153.97;;;54.37;;
15905;SDS011;8051;50.820;4.884;2023-11-21T01:49:14;138.97;;;52.20;;
15905;SDS011;8051;50.820;4.884;2023-11-21T01:51:43;130.50;;;53.70;;
15905;SDS011;8051;50.820;4.884;2023-11-21T01:54:14;129.07;;;51.83;;
15905;SDS011;8051;50.820;4.884;2023-11-21T01:56:42;120.80;;;49.83;;
15905;SDS011;8051;50.820;4.884;2023-11-21T01:59:12;110.93;;;46.33;;
15905;SDS011;8051;50.820;4.884;2023-11-21T02:01:44;124.37;;;49.13;;
15905;SDS011;8051;50.820;4.884;2023-11-21T02:04:12;132.17;;;47.73;;
15905;SDS011;8051;50.820;4.884;2023-11-21T02:06:41;142.90;;;50.33;;
15905;SDS011;8051;50.820;4.884;2023-11-21T02:09:08;132.47;;;50.47;;
15905;SDS011;8051;50.820;4.884;2023-11-21T02:11:36;132.17;;;51.30;;
15905;SDS011;8051;50.820;4.884;2023-11-21T02:14:04;147.50;;;51.70;;
15905;SDS011;8051;50.820;4.884;2023-11-21T02:16:35;137.07;;;49.10;;
15905;SDS011;8051;50.820;4.884;2023-11-21T02:19:03;174.30;;;53.17;;
15905;SDS011;8051;50.820;4.884;2023-11-21T02:21:34;176.43;;;53.23;;
15905;SDS011;8051;50.820;4.884;2023-11-21T02:24:07;199.73;;;54.33;;
15905;SDS011;8051;50.820;4.884;2023-11-21T02:26:35;207.73;;;55.70;;
15905;SDS011;8051;50.820;4.884;2023-11-21T02:29:02;181.07;;;52.23;;
15905;SDS011;8051;50.820;4.884;2023-11-21T02:31:30;212.13;;;58.67;;
15905;SDS011;8051;50.820;4.884;2023-11-21T02:33:58;221.27;;;57.77;;
15905;SDS011;8051;50.820;4.884;2023-11-21T02:36:26;228.87;;;57.97;;
15905;SDS011;8051;50.820;4.884;2023-11-21T02:38:53;230.50;;;58.87;;
15905;SDS011;8051;50.820;4.884;2023-11-21T02:41:22;187.37;;;56.07;;
15905;SDS011;8051;50.820;4.884;2023-11-21T02:43:50;212.43;;;55.67;;
15905;SDS011;8051;50.820;4.884;2023-11-21T02:46:17;208.00;;;56.00;;
15905;SDS011;8051;50.820;4.884;2023-11-21T02:48:44;184.47;;;54.43;;
15905;SDS011;8051;50.820;4.884;2023-11-21T02:51:12;201.10;;;57.37;;
15905;SDS011;8051;50.820;4.884;2023-11-21T02:53:41;208.07;;;57.30;;
15905;SDS011;8051;50.820;4.884;2023-11-21T02:56:08;209.93;;;56.47;;
15905;SDS011;8051;50.820;4.884;2023-11-21T02:58:37;190.70;;;57.10;;
15905;SDS011;8051;50.820;4.884;2023-11-21T03:01:08;233.30;;;62.83;;
15905;SDS011;8051;50.820;4.884;2023-11-21T03:03:36;249.20;;;62.93;;
15905;SDS011;8051;50.820;4.884;2023-11-21T03:06:05;240.20;;;64.27;;
15905;SDS011;8051;50.820;4.884;2023-11-21T03:08:33;256.23;;;64.10;;
15905;SDS011;8051;50.820;4.884;2023-11-21T03:11:01;282.50;;;65.33;;
15905;SDS011;8051;50.820;4.884;2023-11-21T03:13:29;270.83;;;66.87;;
15905;SDS011;8051;50.820;4.884;2023-11-21T03:15:58;226.97;;;59.80;;
15905;SDS011;8051;50.820;4.884;2023-11-21T03:18:25;256.17;;;64.10;;
15905;SDS011;8051;50.820;4.884;2023-11-21T03:20:54;212.57;;;62.00;;
15905;SDS011;8051;50.820;4.884;2023-11-21T03:23:22;190.10;;;59.47;;
15905;SDS011;8051;50.820;4.884;2023-11-21T03:25:49;175.40;;;58.23;;
15905;SDS011;8051;50.820;4.884;2023-11-21T03:28:17;241.27;;;61.27;;
15905;SDS011;8051;50.820;4.884;2023-11-21T03:30:44;221.03;;;60.50;;
15905;SDS011;8051;50.820;4.884;2023-11-21T03:33:13;199.20;;;57.17;;
15905;SDS011;8051;50.820;4.884;2023-11-21T03:35:41;208.80;;;61.33;;
15905;SDS011;8051;50.820;4.884;2023-11-21T03:38:10;183.87;;;57.13;;
15905;SDS011;8051;50.820;4.884;2023-11-21T03:40:37;204.13;;;59.07;;
15905;SDS011;8051;50.820;4.884;2023-11-21T03:43:05;197.10;;;56.73;;
15905;SDS011;8051;50.820;4.884;2023-11-21T03:45:33;236.23;;;60.27;;
15905;SDS011;8051;50.820;4.884;2023-11-21T03:48:00;181.47;;;57.67;;
15905;SDS011;8051;50.820;4.884;2023-11-21T03:50:29;179.63;;;55.30;;
15905;SDS011;8051;50.820;4.884;2023-11-21T03:52:57;219.17;;;57.43;;
15905;SDS011;8051;50.820;4.884;2023-11-21T03:55:24;165.53;;;53.33;;
15905;SDS011;8051;50.820;4.884;2023-11-21T03:57:52;140.17;;;50.40;;
15905;SDS011;8051;50.820;4.884;2023-11-21T04:00:20;158.30;;;51.83;;
15905;SDS011;8051;50.820;4.884;2023-11-21T04:02:47;167.73;;;54.97;;
15905;SDS011;8051;50.820;4.884;2023-11-21T04:05:17;153.50;;;52.03;;
15905;SDS011;8051;50.820;4.884;2023-11-21T04:07:46;147.90;;;50.20;;
15905;SDS011;8051;50.820;4.884;2023-11-21T04:10:13;144.33;;;47.87;;
15905;SDS011;8051;50.820;4.884;2023-11-21T04:12:41;153.83;;;50.13;;
15905;SDS011;8051;50.820;4.884;2023-11-21T04:15:09;142.00;;;48.53;;
15905;SDS011;8051;50.820;4.884;2023-11-21T04:17:38;152.70;;;50.03;;
15905;SDS011;8051;50.820;4.884;2023-11-21T04:20:06;154.53;;;53.27;;
15905;SDS011;8051;50.820;4.884;2023-11-21T04:22:36;149.57;;;50.23;;
15905;SDS011;8051;50.820;4.884;2023-11-21T04:25:07;140.90;;;50.10;;
15905;SDS011;8051;50.820;4.884;2023-11-21T04:27:36;132.87;;;50.30;;
15905;SDS011;8051;50.820;4.884;2023-11-21T04:30:05;154.20;;;49.00;;
15905;SDS011;8051;50.820;4.884;2023-11-21T04:32:33;137.20;;;47.80;;
15905;SDS011;8051;50.820;4.884;2023-11-21T04:35:00;128.13;;;49.37;;
15905;SDS011;8051;50.820;4.884;2023-11-21T04:37:29;136.10;;;51.67;;
15905;SDS011;8051;50.820;4.884;2023-11-21T04:39:56;146.60;;;53.67;;
15905;SDS011;8051;50.820;4.884;2023-11-21T04:42:26;145.63;;;53.53;;
15905;SDS011;8051;50.820;4.884;2023-11-21T04:44:54;127.23;;;49.03;;
15905;SDS011;8051;50.820;4.884;2023-11-21T04:47:21;143.00;;;51.43;;
15905;SDS011;8051;50.820;4.884;2023-11-21T04:49:49;143.43;;;53.30;;
15905;SDS011;8051;50.820;4.884;2023-11-21T04:52:17;138.00;;;50.13;;
15905;SDS011;8051;50.820;4.884;2023-11-21T04:54:45;141.07;;;52.57;;
15905;SDS011;8051;50.820;4.884;2023-11-21T04:57:13;143.97;;;50.17;;
15905;SDS011;8051;50.820;4.884;2023-11-21T04:59:44;136.43;;;50.90;;
15905;SDS011;8051;50.820;4.884;2023-11-21T05:02:12;125.90;;;47.43;;
15905;SDS011;8051;50.820;4.884;2023-11-21T05:04:39;132.07;;;49.67;;
15905;SDS011;8051;50.820;4.884;2023-11-21T05:07:08;137.70;;;50.73;;
15905;SDS011;8051;50.820;4.884;2023-11-21T05:09:35;134.77;;;48.63;;
15905;SDS011;8051;50.820;4.884;2023-11-21T05:12:09;131.37;;;49.70;;
15905;SDS011;8051;50.820;4.884;2023-11-21T05:14:37;147.30;;;49.50;;
15905;SDS011;8051;50.820;4.884;2023-11-21T05:17:06;148.33;;;50.57;;
15905;SDS011;8051;50.820;4.884;2023-11-21T05:19:34;138.60;;;50.10;;
15905;SDS011;8051;50.820;4.884;2023-11-21T05:22:02;131.57;;;49.90;;
15905;SDS011;8051;50.820;4.884;2023-11-21T05:24:30;137.37;;;49.93;;
15905;SDS011;8051;50.820;4.884;2023-11-21T05:26:58;129.80;;;48.13;;
15905;SDS011;8051;50.820;4.884;2023-11-21T05:29:25;149.73;;;52.93;;
15905;SDS011;8051;50.820;4.884;2023-11-21T05:31:53;143.53;;;49.20;;
15905;SDS011;8051;50.820;4.884;2023-11-21T05:34:22;132.00;;;50.37;;
15905;SDS011;8051;50.820;4.884;2023-11-21T05:36:49;153.37;;;50.63;;
15905;SDS011;8051;50.820;4.884;2023-11-21T05:39:17;133.67;;;49.33;;
15905;SDS011;8051;50.820;4.884;2023-11-21T05:41:44;128.50;;;48.13;;
15905;SDS011;8051;50.820;4.884;2023-11-21T05:44:12;124.93;;;47.63;;
15905;SDS011;8051;50.820;4.884;2023-11-21T05:46:40;135.37;;;49.87;;
15905;SDS011;8051;50.820;4.884;2023-11-21T05:49:08;124.33;;;51.10;;
15905;SDS011;8051;50.820;4.884;2023-11-21T05:51:38;119.20;;;45.80;;
15905;SDS011;8051;50.820;4.884;2023-11-21T05:54:05;131.63;;;49.17;;
15905;SDS011;8051;50.820;4.884;2023-11-21T05:56:33;135.87;;;50.07;;
15905;SDS011;8051;50.820;4.884;2023-11-21T05:59:00;134.00;;;47.20;;
15905;SDS011;8051;50.820;4.884;2023-11-21T06:01:28;125.43;;;48.77;;
15905;SDS011;8051;50.820;4.884;2023-11-21T06:03:56;133.97;;;51.63;;
15905;SDS011;8051;50.820;4.884;2023-11-21T06:06:24;137.07;;;48.37;;
15905;SDS011;8051;50.820;4.884;2023-11-21T06:08:53;139.57;;;49.23;;
15905;SDS011;8051;50.820;4.884;2023-11-21T06:11:20;144.53;;;51.03;;
15905;SDS011;8051;50.820;4.884;2023-11-21T06:13:48;123.87;;;46.67;;
15905;SDS011;8051;50.820;4.884;2023-11-21T06:16:18;123.57;;;47.70;;
15905;SDS011;8051;50.820;4.884;2023-11-21T06:18:46;141.43;;;48.77;;
15905;SDS011;8051;50.820;4.884;2023-11-21T06:21:13;135.00;;;50.10;;
15905;SDS011;8051;50.820;4.884;2023-11-21T06:23:42;137.20;;;50.17;;
15905;SDS011;8051;50.820;4.884;2023-11-21T06:26:11;137.63;;;49.77;;
15905;SDS011;8051;50.820;4.884;2023-11-21T06:28:38;130.87;;;48.23;;
15905;SDS011;8051;50.820;4.884;2023-11-21T06:31:06;158.30;;;51.30;;
15905;SDS011;8051;50.820;4.884;2023-11-21T06:33:33;129.13;;;49.07;;
15905;SDS011;8051;50.820;4.884;2023-11-21T06:36:01;126.63;;;47.87;;
15905;SDS011;8051;50.820;4.884;2023-11-21T06:38:29;154.00;;;48.63;;
15905;SDS011;8051;50.820;4.884;2023-11-21T06:40:57;141.73;;;47.17;;
15905;SDS011;8051;50.820;4.884;2023-11-21T06:43:29;142.97;;;49.00;;
15905;SDS011;8051;50.820;4.884;2023-11-21T06:45:57;140.97;;;49.03;;
15905;SDS011;8051;50.820;4.884;2023-11-21T06:48:24;140.67;;;50.17;;
15905;SDS011;8051;50.820;4.884;2023-11-21T06:50:52;135.67;;;46.87;;
15905;SDS011;8051;50.820;4.884;2023-11-21T06:53:19;145.93;;;49.40;;
15905;SDS011;8051;50.820;4.884;2023-11-21T06:55:47;144.70;;;48.37;;
15905;SDS011;8051;50.820;4.884;2023-11-21T06:58:14;134.03;;;47.80;;
15905;SDS011;8051;50.820;4.884;2023-11-21T07:00:43;133.07;;;46.93;;
15905;SDS011;8051;50.820;4.884;2023-11-21T07:03:13;120.40;;;44.57;;
15905;SDS011;8051;50.820;4.884;2023-11-21T07:05:41;136.47;;;46.67;;
15905;SDS011;8051;50.820;4.884;2023-11-21T07:08:08;128.10;;;45.20;;
15905;SDS011;8051;50.820;4.884;2023-11-21T07:10:36;110.67;;;43.50;;
15905;SDS011;8051;50.820;4.884;2023-11-21T07:13:04;132.47;;;45.33;;
15905;SDS011;8051;50.820;4.884;2023-11-21T07:15:32;124.97;;;46.30;;
15905;SDS011;8051;50.820;4.884;2023-11-21T07:18:01;124.63;;;45.73;;
15905;SDS011;8051;50.820;4.884;2023-11-21T07:20:28;146.73;;;47.00;;
15905;SDS011;8051;50.820;4.884;2023-11-21T07:22:56;128.27;;;47.53;;
15905;SDS011;8051;50.820;4.884;2023-11-21T07:25:25;118.83;;;44.20;;
15905;SDS011;8051;50.820;4.884;2023-11-21T07:27:52;130.83;;;43.23;;
15905;SDS011;8051;50.820;4.884;2023-11-21T07:30:20;113.27;;;40.37;;
15905;SDS011;8051;50.820;4.884;2023-11-21T07:32:48;118.20;;;42.10;;
15905;SDS011;8051;50.820;4.884;2023-11-21T07:35:17;123.33;;;41.93;;
15905;SDS011;8051;50.820;4.884;2023-11-21T07:37:45;101.43;;;41.63;;
15905;SDS011;8051;50.820;4.884;2023-11-21T07:40:14;122.90;;;41.57;;
15905;SDS011;8051;50.820;4.884;2023-11-21T07:42:42;111.50;;;42.70;;
15905;SDS011;8051;50.820;4.884;2023-11-21T07:45:09;110.83;;;46.40;;
15905;SDS011;8051;50.820;4.884;2023-11-21T07:47:37;127.93;;;49.23;;
15905;SDS011;8051;50.820;4.884;2023-11-21T07:50:06;131.70;;;50.10;;
15905;SDS011;8051;50.820;4.884;2023-11-21T07:52:35;128.80;;;49.27;;
15905;SDS011;8051;50.820;4.884;2023-11-21T07:55:03;129.70;;;49.83;;
15905;SDS011;8051;50.820;4.884;2023-11-21T07:57:32;130.13;;;49.27;;
15905;SDS011;8051;50.820;4.884;2023-11-21T08:00:00;143.83;;;53.83;;
15905;SDS011;8051;50.820;4.884;2023-11-21T08:02:28;157.60;;;53.40;;
15905;SDS011;8051;50.820;4.884;2023-11-21T08:04:55;123.27;;;48.70;;
15905;SDS011;8051;50.820;4.884;2023-11-21T08:07:23;99.13;;;41.27;;
15905;SDS011;8051;50.820;4.884;2023-11-21T08:09:52;108.90;;;41.53;;
15905;SDS011;8051;50.820;4.884;2023-11-21T08:12:20;118.53;;;41.93;;
15905;SDS011;8051;50.820;4.884;2023-11-21T08:14:47;103.20;;;39.03;;
15905;SDS011;8051;50.820;4.884;2023-11-21T08:17:15;106.00;;;43.20;;
15905;SDS011;8051;50.820;4.884;2023-11-21T08:19:45;112.37;;;41.47;;
15905;SDS011;8051;50.820;4.884;2023-11-21T08:22:14;95.83;;;41.03;;
15905;SDS011;8051;50.820;4.884;2023-11-21T08:24:43;101.63;;;38.43;;
15905;SDS011;8051;50.820;4.884;2023-11-21T08:27:13;97.83;;;39.57;;
15905;SDS011;8051;50.820;4.884;2023-11-21T08:29:41;88.87;;;38.83;;
15905;SDS011;8051;50.820;4.884;2023-11-21T08:32:09;90.67;;;39.00;;
15905;SDS011;8051;50.820;4.884;2023-11-21T08:34:36;93.80;;;38.20;;
15905;SDS011;8051;50.820;4.884;2023-11-21T08:37:05;90.83;;;37.83;;
15905;SDS011;8051;50.820;4.884;2023-11-21T08:39:32;95.63;;;37.37;;
15905;SDS011;8051;50.820;4.884;2023-11-21T08:42:00;85.73;;;34.97;;
15905;SDS011;8051;50.820;4.884;2023-11-21T08:44:29;92.07;;;37.03;;
15905;SDS011;8051;50.820;4.884;2023-11-21T08:46:56;86.33;;;36.77;;
15905;SDS011;8051;50.820;4.884;2023-11-21T08:49:24;87.33;;;40.00;;
15905;SDS011;8051;50.820;4.884;2023-11-21T08:51:53;98.60;;;41.77;;
15905;SDS011;8051;50.820;4.884;2023-11-21T08:54:21;112.77;;;46.10;;
15905;SDS011;8051;50.820;4.884;2023-11-21T08:56:48;113.53;;;48.07;;
15905;SDS011;8051;50.820;4.884;2023-11-21T08:59:15;106.00;;;46.93;;
15905;SDS011;8051;50.820;4.884;2023-11-21T09:01:44;115.80;;;49.17;;
15905;SDS011;8051;50.820;4.884;2023-11-21T09:04:11;130.80;;;51.90;;
15905;SDS011;8051;50.820;4.884;2023-11-21T09:06:39;124.77;;;51.80;;
15905;SDS011;8051;50.820;4.884;2023-11-21T09:09:06;119.60;;;52.00;;
15905;SDS011;8051;50.820;4.884;2023-11-21T09:11:35;134.23;;;53.73;;
15905;SDS011;8051;50.820;4.884;2023-11-21T09:14:02;113.77;;;50.00;;
15905;SDS011;8051;50.820;4.884;2023-11-21T09:16:30;114.23;;;51.10;;
15905;SDS011;8051;50.820;4.884;2023-11-21T09:18:59;111.77;;;52.00;;
15905;SDS011;8051;50.820;4.884;2023-11-21T09:21:30;138.70;;;53.73;;
15905;SDS011;8051;50.820;4.884;2023-11-21T09:23:58;133.90;;;54.73;;
15905;SDS011;8051;50.820;4.884;2023-11-21T09:26:25;124.97;;;53.67;;
15905;SDS011;8051;50.820;4.884;2023-11-21T09:28:53;115.53;;;53.97;;
15905;SDS011;8051;50.820;4.884;2023-11-21T09:31:21;116.33;;;50.90;;
15905;SDS011;8051;50.820;4.884;2023-11-21T09:33:49;111.80;;;52.27;;
15905;SDS011;8051;50.820;4.884;2023-11-21T09:36:18;124.53;;;51.47;;
15905;SDS011;8051;50.820;4.884;2023-11-21T09:38:47;115.03;;;50.13;;
15905;SDS011;8051;50.820;4.884;2023-11-21T09:41:19;107.53;;;45.83;;
15905;SDS011;8051;50.820;4.884;2023-11-21T09:43:54;116.30;;;50.33;;
15905;SDS011;8051;50.820;4.884;2023-11-21T09:46:24;106.07;;;48.23;;
15905;SDS011;8051;50.820;4.884;2023-11-21T09:48:55;104.67;;;49.80;;
15905;SDS011;8051;50.820;4.884;2023-11-21T09:51:28;117.77;;;50.30;;
15905;SDS011;8051;50.820;4.884;2023-11-21T09:53:58;116.80;;;49.53;;
15905;SDS011;8051;50.820;4.884;2023-11-21T09:56:27;115.37;;;50.90;;
15905;SDS011;8051;50.820;4.884;2023-11-21T09:58:55;129.90;;;51.97;;
15905;SDS011;8051;50.820;4.884;2023-11-21T10:01:24;103.33;;;47.77;;
15905;SDS011;8051;50.820;4.884;2023-11-21T10:03:53;136.80;;;51.93;;
15905;SDS011;8051;50.820;4.884;2023-11-21T10:06:21;141.03;;;53.33;;
15905;SDS011;8051;50.820;4.884;2023-11-21T10:08:53;116.80;;;52.43;;
15905;SDS011;8051;50.820;4.884;2023-11-21T10:11:22;142.20;;;52.60;;
15905;SDS011;8051;50.820;4.884;2023-11-21T10:13:52;151.63;;;53.73;;
15905;SDS011;8051;50.820;4.884;2023-11-21T10:16:22;130.53;;;49.33;;
15905;SDS011;8051;50.820;4.884;2023-11-21T10:18:53;138.00;;;53.00;;
15905;SDS011;8051;50.820;4.884;2023-11-21T10:21:22;127.07;;;50.37;;
15905;SDS011;8051;50.820;4.884;2023-11-21T10:23:50;136.23;;;51.83;;
15905;SDS011;8051;50.820;4.884;2023-11-21T10:26:20;138.10;;;55.40;;
15905;SDS011;8051;50.820;4.884;2023-11-21T10:28:56;147.57;;;54.27;;
15905;SDS011;8051;50.820;4.884;2023-11-21T10:31:25;128.80;;;51.07;;
15905;SDS011;8051;50.820;4.884;2023-11-21T10:33:55;130.33;;;52.83;;
15905;SDS011;8051;50.820;4.884;2023-11-21T10:36:36;131.33;;;54.33;;
15905;SDS011;8051;50.820;4.884;2023-11-21T10:39:05;146.53;;;55.23;;
15905;SDS011;8051;50.820;4.884;2023-11-21T10:41:32;138.27;;;53.10;;
15905;SDS011;8051;50.820;4.884;2023-11-21T10:44:00;147.43;;;54.83;;
15905;SDS011;8051;50.820;4.884;2023-11-21T10:46:29;132.87;;;55.67;;
15905;SDS011;8051;50.820;4.884;2023-11-21T10:48:57;135.97;;;55.97;;
15905;SDS011;8051;50.820;4.884;2023-11-21T10:51:25;121.10;;;51.60;;
15905;SDS011;8051;50.820;4.884;2023-11-21T10:53:53;145.30;;;56.73;;
15905;SDS011;8051;50.820;4.884;2023-11-21T10:56:23;145.90;;;56.03;;
15905;SDS011;8051;50.820;4.884;2023-11-21T10:58:52;141.33;;;55.10;;
15905;SDS011;8051;50.820;4.884;2023-11-21T11:01:20;125.60;;;56.20;;
15905;SDS011;8051;50.820;4.884;2023-11-21T11:03:50;131.67;;;54.43;;
15905;SDS011;8051;50.820;4.884;2023-11-21T11:06:20;123.07;;;55.20;;
15905;SDS011;8051;50.820;4.884;2023-11-21T11:08:48;119.43;;;52.80;;
15905;SDS011;8051;50.820;4.884;2023-11-21T11:11:16;122.93;;;55.10;;
15905;SDS011;8051;50.820;4.884;2023-11-21T11:13:45;111.20;;;50.20;;
15905;SDS011;8051;50.820;4.884;2023-11-21T11:16:13;105.57;;;49.07;;
15905;SDS011;8051;50.820;4.884;2023-11-21T11:18:42;108.97;;;49.67;;
15905;SDS011;8051;50.820;4.884;2023-11-21T11:21:15;100.37;;;49.10;;
15905;SDS011;8051;50.820;4.884;2023-11-21T11:23:54;86.13;;;46.37;;
15905;SDS011;8051;50.820;4.884;2023-11-21T11:26:36;98.40;;;48.50;;
15905;SDS011;8051;50.820;4.884;2023-11-21T11:29:14;94.13;;;48.37;;
15905;SDS011;8051;50.820;4.884;2023-11-21T11:31:54;93.67;;;46.20;;
15905;SDS011;8051;50.820;4.884;2023-11-21T11:34:30;103.37;;;49.27;;
15905;SDS011;8051;50.820;4.884;2023-11-21T11:37:02;85.90;;;46.60;;
15905;SDS011;8051;50.820;4.884;2023-11-21T11:39:35;94.73;;;48.03;;
15905;SDS011;8051;50.820;4.884;2023-11-21T11:42:04;92.67;;;47.50;;
15905;SDS011;8051;50.820;4.884;2023-11-21T11:44:48;89.57;;;48.20;;
15905;SDS011;8051;50.820;4.884;2023-11-21T11:47:21;79.27;;;41.33;;
15905;SDS011;8051;50.820;4.884;2023-11-21T11:49:56;80.07;;;46.43;;
15905;SDS011;8051;50.820;4.884;2023-11-21T11:52:32;80.63;;;45.07;;
15905;SDS011;8051;50.820;4.884;2023-11-21T11:55:05;71.73;;;43.10;;
15905;SDS011;8051;50.820;4.884;2023-11-21T11:57:36;73.77;;;43.00;;
15905;SDS011;8051;50.820;4.884;2023-11-21T12:00:13;97.43;;;45.60;;
15905;SDS011;8051;50.820;4.884;2023-11-21T12:02:47;81.83;;;43.47;;
15905;SDS011;8051;50.820;4.884;2023-11-21T12:05:16;91.07;;;45.53;;
15905;SDS011;8051;50.820;4.884;2023-11-21T12:07:45;91.40;;;43.40;;
15905;SDS011;8051;50.820;4.884;2023-11-21T12:10:14;100.43;;;44.60;;
15905;SDS011;8051;50.820;4.884;2023-11-21T12:12:47;83.60;;;42.50;;
15905;SDS011;8051;50.820;4.884;2023-11-21T12:15:19;87.47;;;45.00;;
15905;SDS011;8051;50.820;4.884;2023-11-21T12:17:47;84.03;;;45.27;;
15905;SDS011;8051;50.820;4.884;2023-11-21T12:20:18;80.40;;;42.90;;
15905;SDS011;8051;50.820;4.884;2023-11-21T12:22:47;75.50;;;43.80;;
15905;SDS011;8051;50.820;4.884;2023-11-21T12:25:15;75.37;;;56.73;;
15905;SDS011;8051;50.820;4.884;2023-11-21T12:27:43;65.60;;;41.37;;
15905;SDS011;8051;50.820;4.884;2023-11-21T12:30:12;79.10;;;42.97;;
15905;SDS011;8051;50.820;4.884;2023-11-21T12:32:42;65.30;;;42.87;;
15905;SDS011;8051;50.820;4.884;2023-11-21T12:35:12;59.93;;;39.60;;
15905;SDS011;8051;50.820;4.884;2023-11-21T12:37:40;56.47;;;38.50;;
15905;SDS011;8051;50.820;4.884;2023-11-21T12:40:09;61.43;;;38.43;;
15905;SDS011;8051;50.820;4.884;2023-11-21T12:42:39;54.40;;;36.60;;
15905;SDS011;8051;50.820;4.884;2023-11-21T12:45:09;51.27;;;36.57;;
15905;SDS011;8051;50.820;4.884;2023-11-21T12:47:47;52.03;;;38.27;;
15905;SDS011;8051;50.820;4.884;2023-11-21T12:50:16;45.87;;;37.03;;
15905;SDS011;8051;50.820;4.884;2023-11-21T12:52:49;46.77;;;39.37;;
15905;SDS011;8051;50.820;4.884;2023-11-21T12:55:19;41.90;;;37.10;;
15905;SDS011;8051;50.820;4.884;2023-11-21T12:57:47;45.97;;;41.30;;
15905;SDS011;8051;50.820;4.884;2023-11-21T13:00:17;46.47;;;41.63;;
15905;SDS011;8051;50.820;4.884;2023-11-21T13:02:55;39.80;;;35.70;;
15905;SDS011;8051;50.820;4.884;2023-11-21T13:05:26;43.07;;;37.60;;
15905;SDS011;8051;50.820;4.884;2023-11-21T13:07:54;39.33;;;35.27;;
15905;SDS011;8051;50.820;4.884;2023-11-21T13:10:23;37.40;;;33.53;;
15905;SDS011;8051;50.820;4.884;2023-11-21T13:12:52;45.03;;;37.90;;
15905;SDS011;8051;50.820;4.884;2023-11-21T13:15:20;42.23;;;37.07;;
15905;SDS011;8051;50.820;4.884;2023-11-21T13:17:47;37.00;;;33.40;;
15905;SDS011;8051;50.820;4.884;2023-11-21T13:20:17;40.93;;;36.30;;
15905;SDS011;8051;50.820;4.884;2023-11-21T13:22:46;39.33;;;35.47;;
15905;SDS011;8051;50.820;4.884;2023-11-21T13:25:15;39.00;;;35.13;;
15905;SDS011;8051;50.820;4.884;2023-11-21T13:27:45;39.37;;;35.17;;
15905;SDS011;8051;50.820;4.884;2023-11-21T13:30:13;38.43;;;34.50;;
15905;SDS011;8051;50.820;4.884;2023-11-21T13:32:42;38.83;;;34.83;;
15905;SDS011;8051;50.820;4.884;2023-11-21T13:35:11;39.47;;;35.50;;
15905;SDS011;8051;50.820;4.884;2023-11-21T13:37:51;37.00;;;33.53;;
15905;SDS011;8051;50.820;4.884;2023-11-21T13:40:21;35.83;;;32.47;;
15905;SDS011;8051;50.820;4.884;2023-11-21T13:42:51;36.03;;;32.60;;
15905;SDS011;8051;50.820;4.884;2023-11-21T13:45:24;32.13;;;29.23;;
15905;SDS011;8051;50.820;4.884;2023-11-21T13:47:53;31.23;;;28.53;;
15905;SDS011;8051;50.820;4.884;2023-11-21T13:50:23;31.10;;;28.30;;
15905;SDS011;8051;50.820;4.884;2023-11-21T13:52:57;30.77;;;28.23;;
15905;SDS011;8051;50.820;4.884;2023-11-21T13:55:29;31.33;;;28.63;;
15905;SDS011;8051;50.820;4.884;2023-11-21T13:57:56;30.97;;;28.27;;
15905;SDS011;8051;50.820;4.884;2023-11-21T14:00:24;29.00;;;26.57;;
15905;SDS011;8051;50.820;4.884;2023-11-21T14:03:11;31.00;;;27.90;;
15905;SDS011;8051;50.820;4.884;2023-11-21T14:05:46;31.57;;;28.73;;
15905;SDS011;8051;50.820;4.884;2023-11-21T14:08:18;31.90;;;28.67;;
15905;SDS011;8051;50.820;4.884;2023-11-21T14:10:46;29.73;;;26.77;;
15905;SDS011;8051;50.820;4.884;2023-11-21T14:13:20;31.17;;;27.73;;
15905;SDS011;8051;50.820;4.884;2023-11-21T14:15:48;31.47;;;28.30;;
15905;SDS011;8051;50.820;4.884;2023-11-21T14:18:22;31.50;;;28.50;;
15905;SDS011;8051;50.820;4.884;2023-11-21T14:20:55;31.07;;;28.00;;
15905;SDS011;8051;50.820;4.884;2023-11-21T14:23:24;30.50;;;27.90;;
15905;SDS011;8051;50.820;4.884;2023-11-21T14:25:53;30.13;;;27.10;;
15905;SDS011;8051;50.820;4.884;2023-11-21T14:28:21;28.47;;;25.87;;
15905;SDS011;8051;50.820;4.884;2023-11-21T14:30:49;27.53;;;25.13;;
15905;SDS011;8051;50.820;4.884;2023-11-21T14:33:17;26.57;;;24.27;;
15905;SDS011;8051;50.820;4.884;2023-11-21T14:35:44;26.97;;;24.47;;